createdAt,value
2019-03-25T00:02:30.876Z,6.30
2019-03-25T00:05:07.093Z,6.30
2019-03-25T00:07:42.110Z,6.30
2019-03-25T00:10:17.667Z,6.30
2019-03-25T00:12:52.701Z,6.30
2019-03-25T00:15:28.857Z,6.20
2019-03-25T00:18:03.882Z,6.20
2019-03-25T00:20:39.108Z,6.20
2019-03-25T00:25:49.315Z,6.10
2019-03-25T00:28:25.350Z,6.10
2019-03-25T00:31:01.300Z,6.10
2019-03-25T00:33:36.673Z,6.00
2019-03-25T00:36:12.110Z,6.00
2019-03-25T00:38:47.117Z,6.00
2019-03-25T00:41:22.492Z,6.00
2019-03-25T00:43:58.428Z,6.00
2019-03-25T00:46:33.434Z,6.00
2019-03-25T00:49:09.748Z,5.90
2019-03-25T00:51:44.846Z,6.00
2019-03-25T00:54:19.865Z,6.00
2019-03-25T00:56:54.886Z,6.00
2019-03-25T00:59:30.891Z,6.00
2019-03-25T01:02:05.929Z,6.10
2019-03-25T01:04:41.952Z,6.10
2019-03-25T01:07:16.984Z,6.10
2019-03-25T01:09:52.001Z,6.10
2019-03-25T01:12:28.031Z,6.10
2019-03-25T01:15:03.046Z,6.10
2019-03-25T01:17:38.415Z,6.10
2019-03-25T01:20:13.596Z,6.00
2019-03-25T01:22:48.705Z,6.00
2019-03-25T01:25:24.030Z,6.00
2019-03-25T01:27:59.376Z,6.00
2019-03-25T01:30:36.092Z,6.00
2019-03-25T01:33:11.171Z,6.00
2019-03-25T01:35:46.534Z,6.00
2019-03-25T01:38:21.974Z,6.00
2019-03-25T01:40:57.512Z,5.90
2019-03-25T01:43:33.425Z,5.90
2019-03-25T01:46:08.834Z,5.80
2019-03-25T01:48:43.849Z,5.80
2019-03-25T01:51:18.869Z,5.80
2019-03-25T01:53:53.975Z,5.80
2019-03-25T01:56:29.575Z,5.70
2019-03-25T01:59:04.638Z,5.70
2019-03-25T02:01:39.660Z,5.60
2019-03-25T02:04:14.666Z,5.50
2019-03-25T02:06:49.708Z,5.50
2019-03-25T02:09:25.066Z,5.40
2019-03-25T02:12:00.190Z,5.40
2019-03-25T02:14:36.349Z,5.40
2019-03-25T02:17:12.301Z,5.30
2019-03-25T02:19:47.662Z,5.30
2019-03-25T02:22:22.667Z,5.30
2019-03-25T02:24:57.711Z,5.30
2019-03-25T02:27:33.076Z,5.30
2019-03-25T02:30:09.136Z,5.20
2019-03-25T02:32:44.470Z,5.20
2019-03-25T02:35:22.890Z,5.10
2019-03-25T02:37:58.902Z,5.00
2019-03-25T02:40:39.405Z,5.10
2019-03-25T02:43:14.433Z,5.00
2019-03-25T02:45:50.366Z,4.90
2019-03-25T02:48:25.781Z,4.90
2019-03-25T02:51:00.872Z,4.90
2019-03-25T02:53:36.331Z,4.80
2019-03-25T02:56:12.411Z,4.80
2019-03-25T02:58:47.503Z,4.70
2019-03-25T03:01:22.870Z,4.70
2019-03-25T03:03:58.211Z,4.70
2019-03-25T03:06:33.240Z,4.60
2019-03-25T03:09:09.910Z,4.60
2019-03-25T03:11:44.943Z,4.60
2019-03-25T03:14:20.076Z,4.60
2019-03-25T03:16:55.554Z,4.60
2019-03-25T03:19:30.570Z,4.70
2019-03-25T03:22:05.604Z,4.70
2019-03-25T03:24:40.768Z,4.80
2019-03-25T03:27:15.981Z,4.80
2019-03-25T03:29:50.981Z,4.90
2019-03-25T03:32:26.066Z,4.90
2019-03-25T03:35:02.462Z,4.90
2019-03-25T03:37:38.811Z,4.80
2019-03-25T03:40:14.164Z,4.80
2019-03-25T03:42:49.195Z,4.70
2019-03-25T03:45:24.202Z,4.70
2019-03-25T03:47:59.233Z,4.70
2019-03-25T03:50:34.266Z,4.70
2019-03-25T03:53:09.441Z,4.70
2019-03-25T03:55:44.930Z,4.70
2019-03-25T03:58:22.109Z,4.70
2019-03-25T04:00:57.499Z,4.70
2019-03-25T04:03:32.531Z,4.70
2019-03-25T04:06:07.639Z,4.70
2019-03-25T04:08:42.767Z,4.80
2019-03-25T04:11:17.791Z,4.70
2019-03-25T04:13:53.169Z,4.70
2019-03-25T04:16:28.607Z,4.70
2019-03-25T04:19:03.637Z,4.70
2019-03-25T04:21:38.652Z,4.60
2019-03-25T04:24:14.529Z,4.60
2019-03-25T04:26:49.617Z,4.60
2019-03-25T04:29:24.673Z,4.50
2019-03-25T04:31:59.749Z,4.50
2019-03-25T04:34:35.891Z,4.50
2019-03-25T04:37:11.250Z,4.60
2019-03-25T04:39:47.140Z,4.60
2019-03-25T04:42:22.150Z,4.60
2019-03-25T04:44:57.492Z,4.60
2019-03-25T04:47:32.613Z,4.50
2019-03-25T04:50:08.276Z,4.60
2019-03-25T04:52:43.606Z,4.60
2019-03-25T04:55:18.730Z,4.60
2019-03-25T04:57:53.752Z,4.60
2019-03-25T05:00:36.618Z,4.60
2019-03-25T05:03:11.954Z,4.60
2019-03-25T05:05:47.386Z,4.60
2019-03-25T05:08:23.319Z,4.70
2019-03-25T05:10:58.349Z,4.70
2019-03-25T05:13:35.177Z,4.70
2019-03-25T05:16:10.606Z,4.80
2019-03-25T05:18:45.951Z,4.80
2019-03-25T05:21:20.992Z,4.80
2019-03-25T05:23:56.098Z,4.80
2019-03-25T05:26:31.121Z,4.80
2019-03-25T05:29:06.169Z,4.70
2019-03-25T05:31:41.183Z,4.70
2019-03-25T05:34:16.570Z,4.70
2019-03-25T05:36:51.614Z,4.80
2019-03-25T05:39:26.646Z,4.80
2019-03-25T05:42:03.586Z,4.80
2019-03-25T05:44:38.614Z,4.90
2019-03-25T05:47:13.635Z,4.90
2019-03-25T05:49:48.688Z,4.90
2019-03-25T05:52:24.353Z,4.90
2019-03-25T05:55:00.754Z,4.90
2019-03-25T05:57:35.775Z,4.90
2019-03-25T06:00:10.942Z,4.80
2019-03-25T06:02:45.993Z,4.70
2019-03-25T06:05:21.362Z,4.60
2019-03-25T06:07:56.740Z,4.50
2019-03-25T06:10:32.081Z,4.30
2019-03-25T06:13:07.118Z,4.20
2019-03-25T06:15:42.125Z,4.20
2019-03-25T06:18:17.170Z,4.00
2019-03-25T06:20:52.554Z,4.00
2019-03-25T06:23:27.865Z,3.90
2019-03-25T06:26:02.950Z,3.90
2019-03-25T06:28:37.982Z,3.80
2019-03-25T06:31:12.983Z,3.80
2019-03-25T06:33:48.028Z,3.80
2019-03-25T06:36:23.038Z,3.90
2019-03-25T06:38:58.051Z,3.90
2019-03-25T06:41:33.085Z,3.80
2019-03-25T06:44:09.050Z,3.80
2019-03-25T06:46:44.087Z,3.70
2019-03-25T06:49:20.982Z,3.50
2019-03-25T06:51:56.012Z,3.50
2019-03-25T06:54:31.371Z,3.50
2019-03-25T06:57:06.722Z,3.40
2019-03-25T06:59:42.154Z,3.20
2019-03-25T07:02:17.228Z,3.10
2019-03-25T07:04:52.303Z,3.00
2019-03-25T07:07:27.333Z,3.00
2019-03-25T07:10:02.467Z,3.00
2019-03-25T07:12:38.129Z,2.90
2019-03-25T07:15:14.042Z,2.90
2019-03-25T07:17:53.661Z,2.80
2019-03-25T07:20:28.673Z,2.80
2019-03-25T07:23:03.788Z,2.80
2019-03-25T07:25:38.874Z,2.80
2019-03-25T07:28:14.204Z,2.80
2019-03-25T07:30:50.557Z,2.90
2019-03-25T07:36:00.734Z,3.00
2019-03-25T07:38:35.748Z,3.10
2019-03-25T07:41:10.770Z,3.20
2019-03-25T07:43:46.218Z,3.30
2019-03-25T07:46:22.830Z,3.40
2019-03-25T07:48:57.879Z,3.40
2019-03-25T07:51:32.904Z,3.50
2019-03-25T07:54:07.938Z,3.60
2019-03-25T07:56:43.036Z,3.70
2019-03-25T07:59:20.125Z,3.80
2019-03-25T08:01:56.307Z,3.80
2019-03-25T08:04:31.650Z,3.90
2019-03-25T08:07:06.679Z,4.00
2019-03-25T08:09:41.784Z,4.10
2019-03-25T08:12:16.919Z,4.30
2019-03-25T08:14:51.997Z,4.50
2019-03-25T08:17:28.009Z,4.60
2019-03-25T08:20:03.492Z,4.60
2019-03-25T08:22:38.530Z,4.50
2019-03-25T08:25:14.058Z,4.60
2019-03-25T08:27:59.552Z,4.60
2019-03-25T08:30:25.816Z,4.70
2019-03-25T08:33:01.002Z,4.80
2019-03-25T08:35:36.485Z,5.00
2019-03-25T08:38:11.819Z,5.40
2019-03-25T08:40:46.870Z,5.60
2019-03-25T08:43:21.963Z,5.80
2019-03-25T08:45:58.263Z,5.80
2019-03-25T08:48:33.293Z,5.80
2019-03-25T08:51:09.653Z,5.80
2019-03-25T08:53:45.002Z,5.60
2019-03-25T08:56:20.019Z,5.50
2019-03-25T08:58:55.477Z,5.50
2019-03-25T09:01:31.232Z,5.70
2019-03-25T09:04:06.347Z,6.20
2019-03-25T09:06:41.369Z,6.80
2019-03-25T09:09:16.437Z,7.20
2019-03-25T09:11:52.005Z,7.20
2019-03-25T09:14:27.435Z,7.10
2019-03-25T09:17:02.459Z,7.00
2019-03-25T09:19:37.480Z,6.90
2019-03-25T09:22:13.459Z,6.60
2019-03-25T09:24:48.773Z,6.40
2019-03-25T09:27:23.825Z,6.30
2019-03-25T09:29:59.917Z,6.20
2019-03-25T09:32:36.178Z,6.20
2019-03-25T09:35:11.614Z,6.20
2019-03-25T09:37:48.895Z,6.30
2019-03-25T09:40:24.234Z,6.30
2019-03-25T09:43:00.512Z,6.30
2019-03-25T09:45:35.944Z,6.30
2019-03-25T09:48:11.297Z,6.30
2019-03-25T09:50:46.322Z,6.40
2019-03-25T09:53:21.478Z,6.50
2019-03-25T09:55:57.417Z,6.90
2019-03-25T09:58:36.578Z,7.00
2019-03-25T10:01:13.542Z,7.10
2019-03-25T10:03:48.638Z,7.00
2019-03-25T10:06:23.656Z,6.90
2019-03-25T10:08:59.015Z,6.70
2019-03-25T10:11:34.062Z,6.70
2019-03-25T10:14:09.347Z,6.60
2019-03-25T10:16:44.357Z,6.60
2019-03-25T10:19:19.728Z,6.80
2019-03-25T10:21:55.039Z,6.90
2019-03-25T10:24:30.050Z,7.20
2019-03-25T10:27:05.157Z,7.90
2019-03-25T10:29:40.191Z,8.20
2019-03-25T10:32:15.290Z,8.30
2019-03-25T10:34:50.294Z,8.30
2019-03-25T10:37:25.330Z,8.50
2019-03-25T10:40:00.416Z,8.80
2019-03-25T10:42:36.769Z,8.60
2019-03-25T10:45:12.840Z,8.50
2019-03-25T10:47:47.998Z,8.50
2019-03-25T10:50:23.391Z,8.70
2019-03-25T10:52:58.845Z,8.70
2019-03-25T10:55:34.182Z,8.70
2019-03-25T10:58:09.522Z,9.00
2019-03-25T11:00:45.452Z,9.30
2019-03-25T11:03:20.477Z,10.10
2019-03-25T11:05:56.360Z,11.40
2019-03-25T11:08:31.476Z,12.30
2019-03-25T11:11:06.855Z,13.20
2019-03-25T11:13:41.883Z,14.10
2019-03-25T11:16:16.953Z,15.50
2019-03-25T11:18:52.274Z,16.50
2019-03-25T11:21:28.762Z,17.10
2019-03-25T11:24:03.820Z,16.90
2019-03-25T11:26:38.898Z,17.60
2019-03-25T11:29:20.993Z,17.60
2019-03-25T11:31:56.454Z,16.50
2019-03-25T11:34:32.567Z,15.80
2019-03-25T11:37:08.534Z,15.30
2019-03-25T11:39:43.581Z,14.40
2019-03-25T11:42:18.691Z,13.30
2019-03-25T11:44:53.982Z,12.00
2019-03-25T11:47:29.061Z,10.90
2019-03-25T11:50:06.808Z,10.00
2019-03-25T11:52:42.262Z,9.90
2019-03-25T11:55:17.879Z,11.50
2019-03-25T11:57:53.415Z,13.90
2019-03-25T12:00:28.485Z,16.00
2019-03-25T12:03:05.684Z,17.80
2019-03-25T12:05:42.565Z,19.10
2019-03-25T12:08:17.581Z,19.90
2019-03-25T12:10:54.984Z,20.70
2019-03-25T12:13:30.329Z,20.90
2019-03-25T12:16:10.477Z,21.00
2019-03-25T12:19:01.712Z,21.50
2019-03-25T12:21:38.088Z,21.00
2019-03-25T12:24:14.439Z,21.10
2019-03-25T12:26:51.713Z,21.80
2019-03-25T12:29:30.398Z,21.30
2019-03-25T12:32:07.194Z,19.80
2019-03-25T12:34:42.228Z,18.40
2019-03-25T12:37:20.461Z,16.80
2019-03-25T12:39:55.823Z,15.50
2019-03-25T12:42:32.065Z,14.50
2019-03-25T12:45:10.445Z,13.60
2019-03-25T12:47:45.855Z,12.80
2019-03-25T12:50:20.899Z,12.10
2019-03-25T12:52:56.369Z,11.40
2019-03-25T12:55:33.382Z,11.30
2019-03-25T12:58:08.653Z,13.20
2019-03-25T13:00:49.219Z,15.30
2019-03-25T13:03:24.332Z,17.20
2019-03-25T13:06:00.007Z,18.10
2019-03-25T13:08:36.293Z,17.80
2019-03-25T13:11:11.635Z,16.80
2019-03-25T13:13:46.668Z,15.30
2019-03-25T13:16:21.706Z,14.20
2019-03-25T13:18:56.994Z,13.10
2019-03-25T13:21:32.382Z,13.60
2019-03-25T13:24:08.811Z,15.40
2019-03-25T13:26:47.962Z,17.60
2019-03-25T13:29:26.066Z,18.50
2019-03-25T13:32:04.009Z,18.60
2019-03-25T13:34:39.527Z,18.70
2019-03-25T13:37:14.563Z,18.60
2019-03-25T13:39:49.698Z,17.90
2019-03-25T13:42:26.945Z,16.60
2019-03-25T13:45:01.998Z,15.10
2019-03-25T13:47:37.334Z,13.90
2019-03-25T13:50:13.586Z,13.00
2019-03-25T13:52:50.795Z,12.10
2019-03-25T13:55:26.819Z,11.10
2019-03-25T13:58:02.613Z,10.30
2019-03-25T14:00:38.930Z,9.70
2019-03-25T14:03:15.202Z,9.30
2019-03-25T14:05:50.218Z,9.00
2019-03-25T14:08:25.522Z,8.70
2019-03-25T14:11:01.594Z,8.30
2019-03-25T14:13:48.521Z,8.30
2019-03-25T14:16:14.739Z,8.60
2019-03-25T14:18:49.772Z,8.80
2019-03-25T14:21:24.809Z,8.90
2019-03-25T14:23:59.832Z,8.90
2019-03-25T14:26:35.250Z,8.90
2019-03-25T14:29:11.198Z,8.70
2019-03-25T14:31:46.235Z,8.50
2019-03-25T14:34:21.257Z,8.50
2019-03-25T14:36:56.301Z,9.20
2019-03-25T14:39:31.311Z,10.10
2019-03-25T14:42:06.349Z,11.40
2019-03-25T14:44:41.370Z,12.20
2019-03-25T14:47:17.311Z,12.20
2019-03-25T14:49:52.325Z,12.20
2019-03-25T14:52:27.446Z,12.50
2019-03-25T14:55:02.807Z,12.70
2019-03-25T14:57:37.938Z,12.30
2019-03-25T15:00:24.611Z,11.80
2019-03-25T15:02:51.871Z,11.10
2019-03-25T15:05:26.917Z,10.80
2019-03-25T15:08:01.950Z,11.40
2019-03-25T15:10:37.893Z,12.80
2019-03-25T15:13:13.861Z,14.00
2019-03-25T15:15:50.850Z,15.30
2019-03-25T15:18:28.158Z,16.00
2019-03-25T15:21:04.538Z,16.90
2019-03-25T15:23:39.966Z,16.70
2019-03-25T15:26:15.316Z,16.70
2019-03-25T15:28:50.429Z,16.70
2019-03-25T15:31:25.564Z,16.60
2019-03-25T15:34:02.539Z,16.80
2019-03-25T15:36:38.676Z,16.60
2019-03-25T15:39:13.966Z,15.60
2019-03-25T15:41:48.997Z,15.00
2019-03-25T15:44:24.010Z,14.10
2019-03-25T15:46:59.045Z,13.30
2019-03-25T15:49:35.187Z,12.40
2019-03-25T15:52:10.321Z,11.80
2019-03-25T15:54:45.934Z,11.00
2019-03-25T15:57:25.101Z,10.50
2019-03-25T16:00:00.374Z,10.10
2019-03-25T16:02:36.715Z,9.80
2019-03-25T16:05:12.587Z,9.50
2019-03-25T16:07:47.983Z,9.20
2019-03-25T16:10:23.989Z,9.10
2019-03-25T16:12:59.144Z,9.00
2019-03-25T16:15:43.246Z,9.00
2019-03-25T16:18:36.914Z,8.90
2019-03-25T16:21:13.079Z,8.80
2019-03-25T16:23:48.387Z,8.70
2019-03-25T16:26:24.863Z,8.70
2019-03-25T16:28:59.890Z,8.60
2019-03-25T16:31:35.919Z,8.50
2019-03-25T16:34:10.937Z,8.40
2019-03-25T16:36:45.973Z,8.40
2019-03-25T16:39:20.991Z,8.50
2019-03-25T16:41:56.028Z,8.40
2019-03-25T16:44:31.353Z,8.40
2019-03-25T16:47:06.473Z,8.30
2019-03-25T16:49:41.602Z,8.20
2019-03-25T16:52:17.619Z,8.00
2019-03-25T16:54:53.108Z,7.80
2019-03-25T16:57:28.811Z,7.60
2019-03-25T17:00:04.518Z,7.50
2019-03-25T17:02:39.961Z,7.40
2019-03-25T17:05:16.422Z,7.30
2019-03-25T17:07:53.373Z,7.20
2019-03-25T17:10:28.486Z,7.10
2019-03-25T17:13:04.449Z,7.00
2019-03-25T17:15:41.697Z,7.00
2019-03-25T17:18:17.109Z,6.90
2019-03-25T17:20:52.454Z,6.90
2019-03-25T17:23:27.509Z,6.90
2019-03-25T17:26:03.557Z,7.00
2019-03-25T17:28:38.581Z,7.00
2019-03-25T17:31:20.861Z,7.00
2019-03-25T17:33:51.338Z,7.00
2019-03-25T17:36:26.350Z,7.00
2019-03-25T17:39:01.375Z,6.90
2019-03-25T17:41:40.482Z,6.80
2019-03-25T17:44:16.786Z,6.80
2019-03-25T17:46:51.803Z,6.80
2019-03-25T17:49:27.156Z,6.80
2019-03-25T17:52:02.459Z,6.90
2019-03-25T17:54:38.688Z,6.80
2019-03-25T17:57:14.014Z,6.90
2019-03-25T17:59:49.020Z,6.90
2019-03-25T18:02:24.392Z,7.00
2019-03-25T18:04:59.406Z,6.90
2019-03-25T18:07:35.651Z,7.00
2019-03-25T18:10:12.688Z,6.90
2019-03-25T18:12:47.756Z,7.00
2019-03-25T18:15:23.869Z,6.90
2019-03-25T18:17:59.202Z,6.80
2019-03-25T18:20:34.230Z,6.90
2019-03-25T18:23:09.276Z,6.90
2019-03-25T18:25:45.202Z,6.90
2019-03-25T18:28:20.250Z,7.00
2019-03-25T18:30:56.621Z,7.20
2019-03-25T18:33:32.497Z,7.20
2019-03-25T18:36:07.547Z,7.20
2019-03-25T18:38:42.698Z,7.20
2019-03-25T18:41:18.025Z,7.20
2019-03-25T18:43:53.204Z,7.20
2019-03-25T18:46:28.284Z,7.20
2019-03-25T18:49:03.328Z,7.10
2019-03-25T18:51:38.889Z,7.10
2019-03-25T18:54:14.025Z,7.00
2019-03-25T18:56:49.159Z,7.10
2019-03-25T18:59:24.876Z,7.00
2019-03-25T19:02:00.249Z,6.90
2019-03-25T19:04:35.698Z,6.80
2019-03-25T19:07:11.207Z,6.80
2019-03-25T19:09:47.064Z,6.70
2019-03-25T19:12:22.842Z,6.70
2019-03-25T19:15:02.486Z,6.60
2019-03-25T19:17:36.580Z,6.60
2019-03-25T19:20:11.687Z,6.50
2019-03-25T19:22:46.707Z,6.50
2019-03-25T19:25:21.733Z,6.40
2019-03-25T19:27:57.180Z,6.30
2019-03-25T19:30:32.267Z,6.30
2019-03-25T19:33:07.285Z,6.30
2019-03-25T19:35:43.853Z,6.30
2019-03-25T19:38:19.238Z,6.30
2019-03-25T19:40:55.507Z,6.20
2019-03-25T19:43:30.602Z,6.10
2019-03-25T19:46:12.790Z,6.00
2019-03-25T19:48:49.121Z,5.90
2019-03-25T19:51:25.475Z,5.80
2019-03-25T19:54:01.056Z,5.80
2019-03-25T19:56:36.196Z,5.70
2019-03-25T19:59:11.640Z,5.60
2019-03-25T20:01:47.027Z,5.60
2019-03-25T20:04:23.318Z,5.60
2019-03-25T20:07:01.331Z,5.50
2019-03-25T20:09:37.674Z,5.50
2019-03-25T20:12:12.884Z,5.40
2019-03-25T20:14:48.376Z,5.40
2019-03-25T20:17:23.553Z,5.40
2019-03-25T20:19:58.634Z,5.40
2019-03-25T20:22:33.699Z,5.40
2019-03-25T20:25:08.838Z,5.40
2019-03-25T20:27:44.022Z,5.40
2019-03-25T20:30:19.315Z,5.30
2019-03-25T20:32:54.774Z,5.20
2019-03-25T20:35:33.322Z,5.20
2019-03-25T20:38:08.816Z,5.20
2019-03-25T20:40:45.522Z,5.20
2019-03-25T20:43:20.953Z,5.10
2019-03-25T20:45:56.018Z,5.10
2019-03-25T20:48:31.145Z,5.10
2019-03-25T20:51:06.291Z,5.00
2019-03-25T20:53:41.322Z,4.90
2019-03-25T20:56:16.708Z,4.90
2019-03-25T20:58:52.156Z,4.90
2019-03-25T21:01:27.599Z,4.80
2019-03-25T21:04:03.664Z,4.80
2019-03-25T21:06:38.850Z,4.80
2019-03-25T21:09:14.145Z,4.70
2019-03-25T21:11:49.274Z,4.70
2019-03-25T21:14:24.373Z,4.60
2019-03-25T21:16:59.863Z,4.60
2019-03-25T21:19:35.295Z,4.60
2019-03-25T21:22:10.981Z,4.60
2019-03-25T21:24:46.101Z,4.50
2019-03-25T21:27:21.169Z,4.60
2019-03-25T21:29:56.599Z,4.50
2019-03-25T21:32:31.738Z,4.50
2019-03-25T21:35:07.304Z,4.50
2019-03-25T21:37:42.555Z,4.50
2019-03-25T21:40:17.709Z,4.60
2019-03-25T21:42:53.163Z,4.60
2019-03-25T21:45:28.207Z,4.60
2019-03-25T21:48:04.801Z,4.60
2019-03-25T21:50:40.237Z,4.60
2019-03-25T21:53:17.901Z,4.50
2019-03-25T21:55:53.335Z,4.50
2019-03-25T21:58:28.730Z,4.40
2019-03-25T22:01:03.914Z,4.40
2019-03-25T22:03:39.005Z,4.30
2019-03-25T22:08:49.974Z,4.20
2019-03-25T22:11:25.069Z,4.10
2019-03-25T22:16:36.188Z,4.10
2019-03-25T22:19:12.474Z,4.10
2019-03-25T22:21:47.490Z,4.00
2019-03-25T22:24:22.861Z,4.00
2019-03-25T22:26:57.860Z,4.00
2019-03-25T22:29:32.894Z,4.00
2019-03-25T22:32:08.273Z,4.00
2019-03-25T22:34:43.311Z,3.90
2019-03-25T22:37:18.637Z,3.90
2019-03-25T22:39:54.974Z,3.90
2019-03-25T22:42:30.346Z,3.80
2019-03-25T22:45:07.431Z,3.80
2019-03-25T22:47:42.825Z,3.80
2019-03-25T22:50:29.268Z,3.80
2019-03-25T22:53:04.401Z,3.80
2019-03-25T22:55:39.406Z,3.80
2019-03-25T22:58:14.794Z,3.70
2019-03-25T23:00:49.808Z,3.80
2019-03-25T23:03:38.205Z,3.70
2019-03-25T23:06:01.950Z,3.70
2019-03-25T23:08:37.296Z,3.70
2019-03-25T23:11:12.648Z,3.60
2019-03-25T23:13:47.763Z,3.60
2019-03-25T23:16:24.042Z,3.60
2019-03-25T23:18:59.393Z,3.60
2019-03-25T23:21:34.513Z,3.60
2019-03-25T23:24:09.533Z,3.60
2019-03-25T23:26:44.897Z,3.50
2019-03-25T23:29:20.236Z,3.50
2019-03-25T23:31:55.261Z,3.50
2019-03-25T23:34:30.285Z,3.50
2019-03-25T23:37:05.645Z,3.50
2019-03-25T23:39:41.764Z,3.50
2019-03-25T23:42:18.398Z,3.50
2019-03-25T23:44:53.718Z,3.60
2019-03-25T23:47:28.736Z,3.70
2019-03-25T23:50:05.955Z,3.70
2019-03-25T23:52:40.994Z,3.70
2019-03-25T23:55:16.091Z,3.70
2019-03-25T23:57:51.473Z,3.70
